sensor_id;sensor_type;location;lat;lon;timestamp;temperature;humidity
12700;DHT22;6414;49.570;6.060;2023-04-29T00:01:36;8.60;99.90
12700;DHT22;6414;49.570;6.060;2023-04-29T00:04:22;8.60;99.90
12700;DHT22;6414;49.570;6.060;2023-04-29T00:07:09;8.40;99.90
12700;DHT22;6414;49.570;6.060;2023-04-29T00:09:54;8.40;99.90
12700;DHT22;6414;49.570;6.060;2023-04-29T00:12:40;8.60;99.90
12700;DHT22;6414;49.570;6.060;2023-04-29T00:15:27;8.80;99.90
12700;DHT22;6414;49.570;6.060;2023-04-29T00:18:13;8.80;99.90
12700;DHT22;6414;49.570;6.060;2023-04-29T00:21:00;9.00;99.90
12700;DHT22;6414;49.570;6.060;2023-04-29T00:23:46;9.20;99.90
12700;DHT22;6414;49.570;6.060;2023-04-29T00:26:31;9.40;99.90
12700;DHT22;6414;49.570;6.060;2023-04-29T00:29:18;9.50;99.90
12700;DHT22;6414;49.570;6.060;2023-04-29T00:32:04;9.60;99.90
12700;DHT22;6414;49.570;6.060;2023-04-29T00:34:50;9.80;99.90
12700;DHT22;6414;49.570;6.060;2023-04-29T00:37:36;9.90;99.90
12700;DHT22;6414;49.570;6.060;2023-04-29T00:40:21;9.80;99.90
12700;DHT22;6414;49.570;6.060;2023-04-29T00:43:08;9.70;99.90
12700;DHT22;6414;49.570;6.060;2023-04-29T00:45:55;9.70;99.90
12700;DHT22;6414;49.570;6.060;2023-04-29T00:48:41;9.70;99.90
12700;DHT22;6414;49.570;6.060;2023-04-29T00:51:27;9.70;99.90
12700;DHT22;6414;49.570;6.060;2023-04-29T00:54:14;9.70;99.90
12700;DHT22;6414;49.570;6.060;2023-04-29T00:57:00;9.70;99.90
12700;DHT22;6414;49.570;6.060;2023-04-29T00:59:46;9.60;99.90
12700;DHT22;6414;49.570;6.060;2023-04-29T01:02:31;9.40;99.90
12700;DHT22;6414;49.570;6.060;2023-04-29T01:05:18;9.20;99.90
12700;DHT22;6414;49.570;6.060;2023-04-29T01:08:33;9.30;99.90
12700;DHT22;6414;49.570;6.060;2023-04-29T01:11:15;9.20;99.90
12700;DHT22;6414;49.570;6.060;2023-04-29T01:14:01;9.20;99.90
12700;DHT22;6414;49.570;6.060;2023-04-29T01:16:51;9.30;99.90
12700;DHT22;6414;49.570;6.060;2023-04-29T01:19:38;9.40;99.90
12700;DHT22;6414;49.570;6.060;2023-04-29T01:22:24;9.40;99.90
12700;DHT22;6414;49.570;6.060;2023-04-29T01:25:11;9.30;99.90
12700;DHT22;6414;49.570;6.060;2023-04-29T01:28:09;9.30;99.90
12700;DHT22;6414;49.570;6.060;2023-04-29T01:30:55;9.30;99.90
12700;DHT22;6414;49.570;6.060;2023-04-29T01:33:50;9.30;99.90
12700;DHT22;6414;49.570;6.060;2023-04-29T01:36:48;9.30;99.90
12700;DHT22;6414;49.570;6.060;2023-04-29T01:39:34;9.30;99.90
12700;DHT22;6414;49.570;6.060;2023-04-29T01:45:10;9.10;99.90
12700;DHT22;6414;49.570;6.060;2023-04-29T01:47:56;9.10;99.90
12700;DHT22;6414;49.570;6.060;2023-04-29T01:50:43;9.10;99.90
12700;DHT22;6414;49.570;6.060;2023-04-29T01:53:29;9.10;99.90
12700;DHT22;6414;49.570;6.060;2023-04-29T01:56:16;8.90;99.90
12700;DHT22;6414;49.570;6.060;2023-04-29T01:59:02;8.90;99.90
12700;DHT22;6414;49.570;6.060;2023-04-29T02:01:48;8.90;99.90
12700;DHT22;6414;49.570;6.060;2023-04-29T02:04:34;8.90;99.90
12700;DHT22;6414;49.570;6.060;2023-04-29T02:07:21;9.00;99.90
12700;DHT22;6414;49.570;6.060;2023-04-29T02:10:08;9.20;99.90
12700;DHT22;6414;49.570;6.060;2023-04-29T02:12:54;9.20;99.90
12700;DHT22;6414;49.570;6.060;2023-04-29T02:15:40;9.20;99.90
12700;DHT22;6414;49.570;6.060;2023-04-29T02:18:26;9.40;99.90
12700;DHT22;6414;49.570;6.060;2023-04-29T02:21:13;9.70;99.90
12700;DHT22;6414;49.570;6.060;2023-04-29T02:23:59;9.70;99.90
12700;DHT22;6414;49.570;6.060;2023-04-29T02:26:46;9.80;99.90
12700;DHT22;6414;49.570;6.060;2023-04-29T02:29:32;9.80;99.90
12700;DHT22;6414;49.570;6.060;2023-04-29T02:32:18;9.80;99.90
12700;DHT22;6414;49.570;6.060;2023-04-29T02:35:04;9.70;99.90
12700;DHT22;6414;49.570;6.060;2023-04-29T02:37:50;9.80;99.90
12700;DHT22;6414;49.570;6.060;2023-04-29T02:40:42;9.80;99.90
12700;DHT22;6414;49.570;6.060;2023-04-29T02:43:28;9.80;99.90
12700;DHT22;6414;49.570;6.060;2023-04-29T02:46:14;9.80;99.90
12700;DHT22;6414;49.570;6.060;2023-04-29T02:49:01;9.80;99.90
12700;DHT22;6414;49.570;6.060;2023-04-29T02:51:48;9.80;99.90
12700;DHT22;6414;49.570;6.060;2023-04-29T02:54:36;9.80;99.90
12700;DHT22;6414;49.570;6.060;2023-04-29T02:57:21;9.80;99.90
12700;DHT22;6414;49.570;6.060;2023-04-29T03:00:08;9.80;99.90
12700;DHT22;6414;49.570;6.060;2023-04-29T03:02:53;9.90;99.90
12700;DHT22;6414;49.570;6.060;2023-04-29T03:05:39;9.80;99.90
12700;DHT22;6414;49.570;6.060;2023-04-29T03:08:26;9.80;99.90
12700;DHT22;6414;49.570;6.060;2023-04-29T03:11:12;9.80;99.90
12700;DHT22;6414;49.570;6.060;2023-04-29T03:13:58;9.80;99.90
12700;DHT22;6414;49.570;6.060;2023-04-29T03:16:45;9.70;99.90
12700;DHT22;6414;49.570;6.060;2023-04-29T03:19:31;9.80;99.90
12700;DHT22;6414;49.570;6.060;2023-04-29T03:22:17;9.70;99.90
12700;DHT22;6414;49.570;6.060;2023-04-29T03:25:04;9.70;99.90
12700;DHT22;6414;49.570;6.060;2023-04-29T03:27:50;9.60;99.90
12700;DHT22;6414;49.570;6.060;2023-04-29T03:30:37;9.70;99.90
12700;DHT22;6414;49.570;6.060;2023-04-29T03:33:24;9.90;99.90
12700;DHT22;6414;49.570;6.060;2023-04-29T03:36:10;9.90;99.90
12700;DHT22;6414;49.570;6.060;2023-04-29T03:38:56;9.80;99.90
12700;DHT22;6414;49.570;6.060;2023-04-29T03:41:42;9.80;99.90
12700;DHT22;6414;49.570;6.060;2023-04-29T03:44:28;9.80;99.90
12700;DHT22;6414;49.570;6.060;2023-04-29T03:47:15;9.80;99.90
12700;DHT22;6414;49.570;6.060;2023-04-29T03:50:02;9.80;99.90
12700;DHT22;6414;49.570;6.060;2023-04-29T03:52:48;9.80;99.90
12700;DHT22;6414;49.570;6.060;2023-04-29T03:55:34;9.80;99.90
12700;DHT22;6414;49.570;6.060;2023-04-29T03:58:20;9.80;99.90
12700;DHT22;6414;49.570;6.060;2023-04-29T04:01:06;9.80;99.90
12700;DHT22;6414;49.570;6.060;2023-04-29T04:03:53;9.70;99.90
12700;DHT22;6414;49.570;6.060;2023-04-29T04:06:39;9.80;99.90
12700;DHT22;6414;49.570;6.060;2023-04-29T04:09:26;9.80;99.90
12700;DHT22;6414;49.570;6.060;2023-04-29T04:12:12;9.70;99.90
12700;DHT22;6414;49.570;6.060;2023-04-29T04:14:59;9.80;99.90
12700;DHT22;6414;49.570;6.060;2023-04-29T04:17:46;9.80;99.90
12700;DHT22;6414;49.570;6.060;2023-04-29T04:20:32;9.80;99.90
12700;DHT22;6414;49.570;6.060;2023-04-29T04:23:18;9.80;99.90
12700;DHT22;6414;49.570;6.060;2023-04-29T04:26:05;9.80;99.90
12700;DHT22;6414;49.570;6.060;2023-04-29T04:28:51;9.80;99.90
12700;DHT22;6414;49.570;6.060;2023-04-29T04:31:37;9.70;99.90
12700;DHT22;6414;49.570;6.060;2023-04-29T04:34:23;9.80;99.90
12700;DHT22;6414;49.570;6.060;2023-04-29T04:37:09;9.70;99.90
12700;DHT22;6414;49.570;6.060;2023-04-29T04:39:55;9.70;99.90
12700;DHT22;6414;49.570;6.060;2023-04-29T04:42:41;9.70;99.90
12700;DHT22;6414;49.570;6.060;2023-04-29T04:45:27;9.80;99.90
12700;DHT22;6414;49.570;6.060;2023-04-29T04:48:14;9.80;99.90
12700;DHT22;6414;49.570;6.060;2023-04-29T04:51:07;9.80;99.90
12700;DHT22;6414;49.570;6.060;2023-04-29T04:53:54;9.80;99.90
12700;DHT22;6414;49.570;6.060;2023-04-29T04:56:41;9.80;99.90
12700;DHT22;6414;49.570;6.060;2023-04-29T04:59:27;9.80;99.90
12700;DHT22;6414;49.570;6.060;2023-04-29T05:02:13;9.80;99.90
12700;DHT22;6414;49.570;6.060;2023-04-29T05:04:59;9.80;99.90
12700;DHT22;6414;49.570;6.060;2023-04-29T05:07:45;9.80;99.90
12700;DHT22;6414;49.570;6.060;2023-04-29T05:10:34;9.80;99.90
12700;DHT22;6414;49.570;6.060;2023-04-29T05:13:18;9.80;99.90
12700;DHT22;6414;49.570;6.060;2023-04-29T05:16:03;9.80;99.90
12700;DHT22;6414;49.570;6.060;2023-04-29T05:18:49;9.80;99.90
12700;DHT22;6414;49.570;6.060;2023-04-29T05:21:35;9.80;99.90
12700;DHT22;6414;49.570;6.060;2023-04-29T05:24:21;9.80;99.90
12700;DHT22;6414;49.570;6.060;2023-04-29T05:27:08;9.80;99.90
12700;DHT22;6414;49.570;6.060;2023-04-29T05:29:54;9.80;99.90
12700;DHT22;6414;49.570;6.060;2023-04-29T05:32:41;9.90;99.90
12700;DHT22;6414;49.570;6.060;2023-04-29T05:35:27;9.80;99.90
12700;DHT22;6414;49.570;6.060;2023-04-29T05:38:13;9.80;99.90
12700;DHT22;6414;49.570;6.060;2023-04-29T05:40:59;9.80;99.90
12700;DHT22;6414;49.570;6.060;2023-04-29T05:43:46;9.80;99.90
12700;DHT22;6414;49.570;6.060;2023-04-29T05:46:32;9.80;99.90
12700;DHT22;6414;49.570;6.060;2023-04-29T05:49:17;9.90;99.90
12700;DHT22;6414;49.570;6.060;2023-04-29T05:52:04;9.80;99.90
12700;DHT22;6414;49.570;6.060;2023-04-29T05:54:50;9.90;99.90
12700;DHT22;6414;49.570;6.060;2023-04-29T05:57:35;9.80;99.90
12700;DHT22;6414;49.570;6.060;2023-04-29T06:00:21;9.90;99.90
12700;DHT22;6414;49.570;6.060;2023-04-29T06:03:08;9.80;99.90
12700;DHT22;6414;49.570;6.060;2023-04-29T06:05:54;9.80;99.90
12700;DHT22;6414;49.570;6.060;2023-04-29T06:08:40;9.80;99.90
12700;DHT22;6414;49.570;6.060;2023-04-29T06:11:26;9.80;99.90
12700;DHT22;6414;49.570;6.060;2023-04-29T06:14:13;9.80;99.90
12700;DHT22;6414;49.570;6.060;2023-04-29T06:16:59;9.80;99.90
12700;DHT22;6414;49.570;6.060;2023-04-29T06:19:46;9.90;99.90
12700;DHT22;6414;49.570;6.060;2023-04-29T06:22:33;9.90;99.90
12700;DHT22;6414;49.570;6.060;2023-04-29T06:25:19;9.80;99.90
12700;DHT22;6414;49.570;6.060;2023-04-29T06:28:05;9.90;99.90
12700;DHT22;6414;49.570;6.060;2023-04-29T06:30:52;9.90;99.90
12700;DHT22;6414;49.570;6.060;2023-04-29T06:33:38;9.90;99.90
12700;DHT22;6414;49.570;6.060;2023-04-29T06:36:24;9.90;99.90
12700;DHT22;6414;49.570;6.060;2023-04-29T06:39:10;9.90;99.90
12700;DHT22;6414;49.570;6.060;2023-04-29T06:41:57;9.90;99.90
12700;DHT22;6414;49.570;6.060;2023-04-29T06:44:43;9.90;99.90
12700;DHT22;6414;49.570;6.060;2023-04-29T06:47:29;10.00;99.90
12700;DHT22;6414;49.570;6.060;2023-04-29T06:50:15;9.90;99.90
12700;DHT22;6414;49.570;6.060;2023-04-29T06:53:02;9.90;99.90
12700;DHT22;6414;49.570;6.060;2023-04-29T06:55:48;9.80;99.90
12700;DHT22;6414;49.570;6.060;2023-04-29T06:58:35;9.80;99.90
12700;DHT22;6414;49.570;6.060;2023-04-29T07:01:21;9.80;99.90
12700;DHT22;6414;49.570;6.060;2023-04-29T07:04:08;9.70;99.90
12700;DHT22;6414;49.570;6.060;2023-04-29T07:06:55;9.70;99.90
12700;DHT22;6414;49.570;6.060;2023-04-29T07:09:41;9.70;99.90
12700;DHT22;6414;49.570;6.060;2023-04-29T07:12:27;9.70;99.90
12700;DHT22;6414;49.570;6.060;2023-04-29T07:15:13;9.70;99.90
12700;DHT22;6414;49.570;6.060;2023-04-29T07:17:59;9.70;99.90
12700;DHT22;6414;49.570;6.060;2023-04-29T07:20:45;9.80;99.90
12700;DHT22;6414;49.570;6.060;2023-04-29T07:23:31;9.70;99.90
12700;DHT22;6414;49.570;6.060;2023-04-29T07:26:17;9.90;99.90
12700;DHT22;6414;49.570;6.060;2023-04-29T07:29:03;10.00;99.90
12700;DHT22;6414;49.570;6.060;2023-04-29T07:31:50;9.90;99.90
12700;DHT22;6414;49.570;6.060;2023-04-29T07:34:37;10.00;99.90
12700;DHT22;6414;49.570;6.060;2023-04-29T07:37:25;10.00;99.90
12700;DHT22;6414;49.570;6.060;2023-04-29T07:40:11;10.00;99.90
12700;DHT22;6414;49.570;6.060;2023-04-29T07:42:57;9.90;99.90
12700;DHT22;6414;49.570;6.060;2023-04-29T07:45:43;10.00;99.90
12700;DHT22;6414;49.570;6.060;2023-04-29T07:48:29;9.90;99.90
12700;DHT22;6414;49.570;6.060;2023-04-29T07:51:15;9.90;99.90
12700;DHT22;6414;49.570;6.060;2023-04-29T07:54:02;9.90;99.90
12700;DHT22;6414;49.570;6.060;2023-04-29T07:56:50;9.80;99.90
12700;DHT22;6414;49.570;6.060;2023-04-29T07:59:36;9.80;99.90
12700;DHT22;6414;49.570;6.060;2023-04-29T08:02:23;9.80;99.90
12700;DHT22;6414;49.570;6.060;2023-04-29T08:05:09;9.80;99.90
12700;DHT22;6414;49.570;6.060;2023-04-29T08:07:55;9.80;99.90
12700;DHT22;6414;49.570;6.060;2023-04-29T08:10:41;9.80;99.90
12700;DHT22;6414;49.570;6.060;2023-04-29T08:13:27;9.80;99.90
12700;DHT22;6414;49.570;6.060;2023-04-29T08:16:13;9.80;99.90
12700;DHT22;6414;49.570;6.060;2023-04-29T08:18:59;9.90;99.90
12700;DHT22;6414;49.570;6.060;2023-04-29T08:21:46;10.00;99.90
12700;DHT22;6414;49.570;6.060;2023-04-29T08:24:32;10.00;99.90
12700;DHT22;6414;49.570;6.060;2023-04-29T08:27:18;10.00;99.90
12700;DHT22;6414;49.570;6.060;2023-04-29T08:30:04;10.00;99.90
12700;DHT22;6414;49.570;6.060;2023-04-29T08:32:51;10.00;99.90
12700;DHT22;6414;49.570;6.060;2023-04-29T08:35:37;9.90;99.90
12700;DHT22;6414;49.570;6.060;2023-04-29T08:38:23;10.00;99.90
12700;DHT22;6414;49.570;6.060;2023-04-29T08:41:09;10.00;99.90
12700;DHT22;6414;49.570;6.060;2023-04-29T08:43:56;10.00;99.90
12700;DHT22;6414;49.570;6.060;2023-04-29T08:46:45;10.00;99.90
12700;DHT22;6414;49.570;6.060;2023-04-29T08:49:28;10.00;99.90
12700;DHT22;6414;49.570;6.060;2023-04-29T08:52:14;10.00;99.90
12700;DHT22;6414;49.570;6.060;2023-04-29T08:55:00;10.00;99.90
12700;DHT22;6414;49.570;6.060;2023-04-29T08:57:47;10.00;99.90
12700;DHT22;6414;49.570;6.060;2023-04-29T09:00:33;10.00;99.90
12700;DHT22;6414;49.570;6.060;2023-04-29T09:03:23;10.00;99.90
12700;DHT22;6414;49.570;6.060;2023-04-29T09:06:09;10.20;99.90
12700;DHT22;6414;49.570;6.060;2023-04-29T09:08:54;10.20;99.90
12700;DHT22;6414;49.570;6.060;2023-04-29T09:11:40;10.10;99.90
12700;DHT22;6414;49.570;6.060;2023-04-29T09:14:27;10.10;99.90
12700;DHT22;6414;49.570;6.060;2023-04-29T09:17:13;10.00;99.90
12700;DHT22;6414;49.570;6.060;2023-04-29T09:20:00;10.00;99.90
12700;DHT22;6414;49.570;6.060;2023-04-29T09:23:02;10.00;99.90
12700;DHT22;6414;49.570;6.060;2023-04-29T09:25:56;10.00;99.90
12700;DHT22;6414;49.570;6.060;2023-04-29T09:28:42;10.10;99.90
12700;DHT22;6414;49.570;6.060;2023-04-29T09:31:28;10.20;99.90
12700;DHT22;6414;49.570;6.060;2023-04-29T09:34:14;10.30;99.90
12700;DHT22;6414;49.570;6.060;2023-04-29T09:37:01;10.50;99.90
12700;DHT22;6414;49.570;6.060;2023-04-29T09:39:47;10.50;99.90
12700;DHT22;6414;49.570;6.060;2023-04-29T09:42:40;10.40;99.90
12700;DHT22;6414;49.570;6.060;2023-04-29T09:45:35;10.50;99.90
12700;DHT22;6414;49.570;6.060;2023-04-29T09:48:21;10.50;99.90
12700;DHT22;6414;49.570;6.060;2023-04-29T09:51:07;10.70;99.90
12700;DHT22;6414;49.570;6.060;2023-04-29T09:53:53;10.90;99.90
12700;DHT22;6414;49.570;6.060;2023-04-29T09:56:49;10.80;99.90
12700;DHT22;6414;49.570;6.060;2023-04-29T09:59:35;10.60;99.90
12700;DHT22;6414;49.570;6.060;2023-04-29T10:02:21;10.60;99.90
12700;DHT22;6414;49.570;6.060;2023-04-29T10:05:08;10.50;99.90
12700;DHT22;6414;49.570;6.060;2023-04-29T10:07:54;10.40;99.90
12700;DHT22;6414;49.570;6.060;2023-04-29T10:10:40;10.60;99.90
12700;DHT22;6414;49.570;6.060;2023-04-29T10:13:26;10.70;99.90
12700;DHT22;6414;49.570;6.060;2023-04-29T10:16:30;10.80;99.90
12700;DHT22;6414;49.570;6.060;2023-04-29T10:19:18;10.70;99.90
12700;DHT22;6414;49.570;6.060;2023-04-29T10:22:08;10.80;99.90
12700;DHT22;6414;49.570;6.060;2023-04-29T10:24:53;10.90;99.90
12700;DHT22;6414;49.570;6.060;2023-04-29T10:27:41;10.90;99.90
12700;DHT22;6414;49.570;6.060;2023-04-29T10:30:25;10.90;99.90
12700;DHT22;6414;49.570;6.060;2023-04-29T10:33:12;10.90;99.90
12700;DHT22;6414;49.570;6.060;2023-04-29T10:35:58;10.90;99.90
12700;DHT22;6414;49.570;6.060;2023-04-29T10:38:45;10.90;99.90
12700;DHT22;6414;49.570;6.060;2023-04-29T10:41:33;10.80;99.90
12700;DHT22;6414;49.570;6.060;2023-04-29T10:44:19;10.80;99.90
12700;DHT22;6414;49.570;6.060;2023-04-29T10:47:18;10.80;99.90
12700;DHT22;6414;49.570;6.060;2023-04-29T10:50:04;10.80;99.90
12700;DHT22;6414;49.570;6.060;2023-04-29T10:52:51;10.80;99.90
12700;DHT22;6414;49.570;6.060;2023-04-29T10:55:38;11.00;99.90
12700;DHT22;6414;49.570;6.060;2023-04-29T10:58:37;11.00;99.90
12700;DHT22;6414;49.570;6.060;2023-04-29T11:01:30;11.00;99.90
12700;DHT22;6414;49.570;6.060;2023-04-29T11:04:09;11.00;99.90
12700;DHT22;6414;49.570;6.060;2023-04-29T11:06:55;11.00;99.90
12700;DHT22;6414;49.570;6.060;2023-04-29T11:09:41;10.80;99.90
12700;DHT22;6414;49.570;6.060;2023-04-29T11:12:26;10.90;99.90
12700;DHT22;6414;49.570;6.060;2023-04-29T11:15:12;11.00;99.90
12700;DHT22;6414;49.570;6.060;2023-04-29T11:17:58;11.00;99.90
12700;DHT22;6414;49.570;6.060;2023-04-29T11:23:50;10.70;99.90
12700;DHT22;6414;49.570;6.060;2023-04-29T11:26:36;10.70;99.90
12700;DHT22;6414;49.570;6.060;2023-04-29T11:29:22;10.80;99.90
12700;DHT22;6414;49.570;6.060;2023-04-29T11:32:08;11.10;99.90
12700;DHT22;6414;49.570;6.060;2023-04-29T11:34:55;10.90;99.90
12700;DHT22;6414;49.570;6.060;2023-04-29T11:37:41;11.00;99.90
12700;DHT22;6414;49.570;6.060;2023-04-29T11:40:26;11.00;99.90
12700;DHT22;6414;49.570;6.060;2023-04-29T11:43:16;11.00;99.90
12700;DHT22;6414;49.570;6.060;2023-04-29T11:46:02;11.00;99.90
12700;DHT22;6414;49.570;6.060;2023-04-29T11:48:48;11.10;99.90
12700;DHT22;6414;49.570;6.060;2023-04-29T11:51:34;11.20;99.90
12700;DHT22;6414;49.570;6.060;2023-04-29T11:54:20;11.20;99.90
12700;DHT22;6414;49.570;6.060;2023-04-29T11:57:06;11.10;99.90
12700;DHT22;6414;49.570;6.060;2023-04-29T11:59:52;11.00;99.90
12700;DHT22;6414;49.570;6.060;2023-04-29T12:02:38;11.00;99.90
12700;DHT22;6414;49.570;6.060;2023-04-29T12:05:25;11.20;99.90
12700;DHT22;6414;49.570;6.060;2023-04-29T12:08:10;11.20;99.90
12700;DHT22;6414;49.570;6.060;2023-04-29T12:10:57;11.10;99.90
12700;DHT22;6414;49.570;6.060;2023-04-29T12:13:43;11.00;99.90
12700;DHT22;6414;49.570;6.060;2023-04-29T12:16:29;11.20;99.90
12700;DHT22;6414;49.570;6.060;2023-04-29T12:19:15;11.20;99.90
12700;DHT22;6414;49.570;6.060;2023-04-29T12:22:02;11.30;99.90
12700;DHT22;6414;49.570;6.060;2023-04-29T12:24:51;11.20;99.90
12700;DHT22;6414;49.570;6.060;2023-04-29T12:27:34;11.40;99.90
12700;DHT22;6414;49.570;6.060;2023-04-29T12:30:20;11.50;99.90
12700;DHT22;6414;49.570;6.060;2023-04-29T12:33:09;11.50;99.90
12700;DHT22;6414;49.570;6.060;2023-04-29T12:35:56;11.40;99.90
12700;DHT22;6414;49.570;6.060;2023-04-29T12:38:41;11.20;99.90
12700;DHT22;6414;49.570;6.060;2023-04-29T12:41:40;11.30;99.90
12700;DHT22;6414;49.570;6.060;2023-04-29T12:44:25;11.20;99.90
12700;DHT22;6414;49.570;6.060;2023-04-29T12:47:12;11.10;99.90
12700;DHT22;6414;49.570;6.060;2023-04-29T12:49:59;11.20;99.90
12700;DHT22;6414;49.570;6.060;2023-04-29T12:52:46;11.20;99.90
12700;DHT22;6414;49.570;6.060;2023-04-29T12:55:36;11.20;99.90
12700;DHT22;6414;49.570;6.060;2023-04-29T12:58:21;11.30;99.90
12700;DHT22;6414;49.570;6.060;2023-04-29T13:01:07;11.30;99.90
12700;DHT22;6414;49.570;6.060;2023-04-29T13:03:54;11.40;99.90
12700;DHT22;6414;49.570;6.060;2023-04-29T13:06:40;11.40;99.90
12700;DHT22;6414;49.570;6.060;2023-04-29T13:09:27;11.40;99.90
12700;DHT22;6414;49.570;6.060;2023-04-29T13:12:13;11.60;99.90
12700;DHT22;6414;49.570;6.060;2023-04-29T13:14:59;11.60;99.90
12700;DHT22;6414;49.570;6.060;2023-04-29T13:17:46;11.60;99.90
12700;DHT22;6414;49.570;6.060;2023-04-29T13:20:32;11.60;99.90
12700;DHT22;6414;49.570;6.060;2023-04-29T13:23:19;11.50;99.90
12700;DHT22;6414;49.570;6.060;2023-04-29T13:26:05;11.50;99.90
12700;DHT22;6414;49.570;6.060;2023-04-29T13:28:52;11.20;99.90
12700;DHT22;6414;49.570;6.060;2023-04-29T13:31:38;11.30;99.90
12700;DHT22;6414;49.570;6.060;2023-04-29T13:34:24;11.20;99.90
12700;DHT22;6414;49.570;6.060;2023-04-29T13:37:11;11.40;99.90
12700;DHT22;6414;49.570;6.060;2023-04-29T13:39:57;11.40;99.90
12700;DHT22;6414;49.570;6.060;2023-04-29T13:42:44;11.40;99.90
12700;DHT22;6414;49.570;6.060;2023-04-29T13:45:30;11.40;99.90
12700;DHT22;6414;49.570;6.060;2023-04-29T13:48:16;11.20;99.90
12700;DHT22;6414;49.570;6.060;2023-04-29T13:51:03;11.30;99.90
12700;DHT22;6414;49.570;6.060;2023-04-29T13:53:49;11.30;99.90
12700;DHT22;6414;49.570;6.060;2023-04-29T13:56:36;11.30;99.90
12700;DHT22;6414;49.570;6.060;2023-04-29T13:59:22;11.30;99.90
12700;DHT22;6414;49.570;6.060;2023-04-29T14:02:09;11.90;99.90
12700;DHT22;6414;49.570;6.060;2023-04-29T14:04:55;11.70;99.90
12700;DHT22;6414;49.570;6.060;2023-04-29T14:07:41;11.90;99.90
12700;DHT22;6414;49.570;6.060;2023-04-29T14:10:27;12.00;99.90
12700;DHT22;6414;49.570;6.060;2023-04-29T14:13:13;12.00;99.90
12700;DHT22;6414;49.570;6.060;2023-04-29T14:15:59;11.80;99.90
12700;DHT22;6414;49.570;6.060;2023-04-29T14:18:45;12.10;99.90
12700;DHT22;6414;49.570;6.060;2023-04-29T14:21:31;12.00;99.90
12700;DHT22;6414;49.570;6.060;2023-04-29T14:24:17;12.20;99.90
12700;DHT22;6414;49.570;6.060;2023-04-29T14:27:03;12.50;99.90
12700;DHT22;6414;49.570;6.060;2023-04-29T14:29:49;12.40;99.90
12700;DHT22;6414;49.570;6.060;2023-04-29T14:32:35;12.10;99.90
12700;DHT22;6414;49.570;6.060;2023-04-29T14:35:21;12.00;99.90
12700;DHT22;6414;49.570;6.060;2023-04-29T14:38:07;12.10;99.90
12700;DHT22;6414;49.570;6.060;2023-04-29T14:40:53;11.90;99.90
12700;DHT22;6414;49.570;6.060;2023-04-29T14:43:39;12.10;99.90
12700;DHT22;6414;49.570;6.060;2023-04-29T14:46:25;12.00;99.90
12700;DHT22;6414;49.570;6.060;2023-04-29T14:49:12;11.60;99.90
12700;DHT22;6414;49.570;6.060;2023-04-29T14:51:58;11.60;99.90
12700;DHT22;6414;49.570;6.060;2023-04-29T14:54:44;11.70;99.90
12700;DHT22;6414;49.570;6.060;2023-04-29T14:57:30;11.80;99.90
12700;DHT22;6414;49.570;6.060;2023-04-29T15:00:16;11.80;99.90
12700;DHT22;6414;49.570;6.060;2023-04-29T15:03:02;11.80;99.90
12700;DHT22;6414;49.570;6.060;2023-04-29T15:05:49;11.80;99.90
12700;DHT22;6414;49.570;6.060;2023-04-29T15:08:34;11.80;99.90
12700;DHT22;6414;49.570;6.060;2023-04-29T15:11:20;11.80;99.90
12700;DHT22;6414;49.570;6.060;2023-04-29T15:14:06;11.90;99.90
12700;DHT22;6414;49.570;6.060;2023-04-29T15:16:52;12.40;99.90
12700;DHT22;6414;49.570;6.060;2023-04-29T15:19:39;12.90;99.90
12700;DHT22;6414;49.570;6.060;2023-04-29T15:22:25;13.50;99.90
12700;DHT22;6414;49.570;6.060;2023-04-29T15:25:11;13.70;99.90
12700;DHT22;6414;49.570;6.060;2023-04-29T15:27:58;12.70;99.90
12700;DHT22;6414;49.570;6.060;2023-04-29T15:30:44;12.70;99.90
12700;DHT22;6414;49.570;6.060;2023-04-29T15:33:31;12.20;99.90
12700;DHT22;6414;49.570;6.060;2023-04-29T15:36:17;12.10;99.90
12700;DHT22;6414;49.570;6.060;2023-04-29T15:39:03;12.20;99.90
12700;DHT22;6414;49.570;6.060;2023-04-29T15:41:49;12.00;99.90
12700;DHT22;6414;49.570;6.060;2023-04-29T15:44:36;12.10;99.90
12700;DHT22;6414;49.570;6.060;2023-04-29T15:47:22;11.80;99.90
12700;DHT22;6414;49.570;6.060;2023-04-29T15:50:08;12.10;99.90
12700;DHT22;6414;49.570;6.060;2023-04-29T15:52:54;11.90;99.90
12700;DHT22;6414;49.570;6.060;2023-04-29T15:55:40;11.90;99.90
12700;DHT22;6414;49.570;6.060;2023-04-29T15:58:27;12.10;99.90
12700;DHT22;6414;49.570;6.060;2023-04-29T16:01:14;11.80;99.90
12700;DHT22;6414;49.570;6.060;2023-04-29T16:04:00;11.80;99.90
12700;DHT22;6414;49.570;6.060;2023-04-29T16:06:46;11.90;99.90
12700;DHT22;6414;49.570;6.060;2023-04-29T16:09:33;11.70;99.90
12700;DHT22;6414;49.570;6.060;2023-04-29T16:12:19;11.60;99.90
12700;DHT22;6414;49.570;6.060;2023-04-29T16:15:06;11.50;99.90
12700;DHT22;6414;49.570;6.060;2023-04-29T16:17:54;11.60;99.90
12700;DHT22;6414;49.570;6.060;2023-04-29T16:20:39;11.60;99.90
12700;DHT22;6414;49.570;6.060;2023-04-29T16:23:25;11.60;99.90
12700;DHT22;6414;49.570;6.060;2023-04-29T16:26:12;11.70;99.90
12700;DHT22;6414;49.570;6.060;2023-04-29T16:28:58;11.60;99.90
12700;DHT22;6414;49.570;6.060;2023-04-29T16:31:44;11.60;99.90
12700;DHT22;6414;49.570;6.060;2023-04-29T16:34:30;11.60;99.90
12700;DHT22;6414;49.570;6.060;2023-04-29T16:37:17;11.60;99.90
12700;DHT22;6414;49.570;6.060;2023-04-29T16:40:04;11.40;99.90
12700;DHT22;6414;49.570;6.060;2023-04-29T16:42:49;11.40;99.90
12700;DHT22;6414;49.570;6.060;2023-04-29T16:45:35;11.50;99.90
12700;DHT22;6414;49.570;6.060;2023-04-29T16:48:22;11.30;99.90
12700;DHT22;6414;49.570;6.060;2023-04-29T16:51:08;11.30;99.90
12700;DHT22;6414;49.570;6.060;2023-04-29T16:53:55;11.40;99.90
12700;DHT22;6414;49.570;6.060;2023-04-29T16:56:41;11.40;99.90
12700;DHT22;6414;49.570;6.060;2023-04-29T16:59:27;11.50;99.90
12700;DHT22;6414;49.570;6.060;2023-04-29T17:02:13;11.40;99.90
12700;DHT22;6414;49.570;6.060;2023-04-29T17:04:59;11.40;99.90
12700;DHT22;6414;49.570;6.060;2023-04-29T17:07:45;11.40;99.90
12700;DHT22;6414;49.570;6.060;2023-04-29T17:10:32;11.20;99.90
12700;DHT22;6414;49.570;6.060;2023-04-29T17:13:18;11.20;99.90
12700;DHT22;6414;49.570;6.060;2023-04-29T17:16:05;11.30;99.90
12700;DHT22;6414;49.570;6.060;2023-04-29T17:18:51;11.30;99.90
12700;DHT22;6414;49.570;6.060;2023-04-29T17:21:37;11.40;99.90
12700;DHT22;6414;49.570;6.060;2023-04-29T17:24:24;11.40;99.90
12700;DHT22;6414;49.570;6.060;2023-04-29T17:27:10;11.40;99.90
12700;DHT22;6414;49.570;6.060;2023-04-29T17:29:57;11.40;99.90
12700;DHT22;6414;49.570;6.060;2023-04-29T17:32:43;11.60;99.90
12700;DHT22;6414;49.570;6.060;2023-04-29T17:35:31;11.40;99.90
12700;DHT22;6414;49.570;6.060;2023-04-29T17:38:16;11.40;99.90
12700;DHT22;6414;49.570;6.060;2023-04-29T17:41:02;11.40;99.90
12700;DHT22;6414;49.570;6.060;2023-04-29T17:43:49;11.60;99.90
12700;DHT22;6414;49.570;6.060;2023-04-29T17:46:35;11.50;99.90
12700;DHT22;6414;49.570;6.060;2023-04-29T17:49:20;11.50;99.90
12700;DHT22;6414;49.570;6.060;2023-04-29T17:52:07;11.40;99.90
12700;DHT22;6414;49.570;6.060;2023-04-29T17:54:54;11.40;99.90
12700;DHT22;6414;49.570;6.060;2023-04-29T17:57:40;11.40;99.90
12700;DHT22;6414;49.570;6.060;2023-04-29T18:00:26;11.30;99.90
12700;DHT22;6414;49.570;6.060;2023-04-29T18:03:12;11.30;99.90